createdAt,value
2019-02-27T00:02:35.713Z,68.00
2019-02-27T00:07:39.307Z,73.42
2019-02-27T00:12:42.824Z,68.62
2019-02-27T00:17:51.122Z,75.92
2019-02-27T00:22:52.070Z,74.50
2019-02-27T00:27:55.637Z,72.05
2019-02-27T00:32:59.187Z,72.78
2019-02-27T00:38:02.787Z,72.70
2019-02-27T00:43:06.345Z,68.80
2019-02-27T00:48:09.922Z,72.12
2019-02-27T00:53:13.470Z,61.75
2019-02-27T00:58:17.078Z,70.90
2019-02-27T01:03:20.625Z,72.37
2019-02-27T01:08:27.256Z,76.62
2019-02-27T01:13:31.264Z,68.80
2019-02-27T01:18:34.802Z,71.75
2019-02-27T01:23:38.329Z,73.78
2019-02-27T01:28:45.426Z,68.72
2019-02-27T01:33:47.333Z,71.50
2019-02-27T01:38:50.924Z,67.15
2019-02-27T01:43:54.557Z,81.35
2019-02-27T01:48:58.456Z,80.10
2019-02-27T01:54:02.002Z,85.80
2019-02-27T01:59:05.606Z,85.75
2019-02-27T02:04:09.132Z,96.12
2019-02-27T02:09:34.865Z,100.13
2019-02-27T02:14:44.591Z,99.00
2019-02-27T02:25:11.948Z,103.45
2019-02-27T02:30:44.186Z,93.50
2019-02-27T02:36:09.319Z,92.95
2019-02-27T02:41:34.082Z,84.58
2019-02-27T02:46:49.514Z,86.95
2019-02-27T02:52:11.330Z,80.40
2019-02-27T02:57:37.685Z,88.92
2019-02-27T03:03:02.424Z,82.67
2019-02-27T03:08:20.189Z,73.40
2019-02-27T03:13:41.553Z,78.67
2019-02-27T03:18:49.466Z,88.58
2019-02-27T03:23:56.146Z,84.47
2019-02-27T03:29:05.732Z,83.55
2019-02-27T03:34:15.190Z,73.47
2019-02-27T03:39:55.459Z,83.97
2019-02-27T03:45:31.802Z,93.12
2019-02-27T03:50:49.612Z,79.65
2019-02-27T03:56:18.105Z,80.32
2019-02-27T04:01:31.401Z,73.80
2019-02-27T04:06:47.059Z,81.02
2019-02-27T04:11:50.636Z,74.30
2019-02-27T04:16:54.236Z,72.22
2019-02-27T04:22:01.079Z,78.30
2019-02-27T04:27:03.091Z,78.45
2019-02-27T04:32:09.612Z,71.92
2019-02-27T04:37:11.921Z,78.92
2019-02-27T04:42:15.469Z,71.12
2019-02-27T04:47:19.077Z,68.85
2019-02-27T04:52:24.412Z,68.00
2019-02-27T04:57:27.942Z,77.10
2019-02-27T05:02:31.461Z,77.82
2019-02-27T05:07:35.090Z,71.28
2019-02-27T05:12:38.615Z,77.22
2019-02-27T05:17:42.163Z,68.17
2019-02-27T05:22:45.755Z,62.75
2019-02-27T05:27:49.276Z,64.00
2019-02-27T05:32:52.881Z,59.42
2019-02-27T05:37:56.432Z,63.55
2019-02-27T05:43:00.018Z,64.22
2019-02-27T05:48:03.566Z,67.87
2019-02-27T05:53:07.157Z,65.72
2019-02-27T05:58:10.711Z,71.95
2019-02-27T06:03:15.922Z,77.25
2019-02-27T06:08:19.578Z,74.50
2019-02-27T06:13:23.161Z,81.50
2019-02-27T06:18:26.679Z,63.28
2019-02-27T06:23:30.251Z,66.40
2019-02-27T06:28:33.799Z,69.32
2019-02-27T06:33:37.378Z,62.67
2019-02-27T06:38:40.903Z,53.15
2019-02-27T06:43:44.506Z,60.05
2019-02-27T06:48:48.054Z,56.50
2019-02-27T06:53:51.632Z,52.95
2019-02-27T06:58:55.150Z,63.78
2019-02-27T07:03:58.746Z,61.45
2019-02-27T07:09:02.268Z,60.60
2019-02-27T07:14:05.889Z,61.80
2019-02-27T07:19:09.446Z,56.40
2019-02-27T07:24:13.061Z,58.50
2019-02-27T07:29:21.739Z,62.05
2019-02-27T07:34:21.938Z,65.47
2019-02-27T07:39:25.460Z,57.38
2019-02-27T07:44:29.012Z,52.58
2019-02-27T07:49:32.589Z,57.95
2019-02-27T07:54:36.134Z,59.73
2019-02-27T07:59:39.709Z,66.25
2019-02-27T08:04:43.246Z,55.10
2019-02-27T08:09:46.810Z,56.33
2019-02-27T08:14:50.324Z,53.80
2019-02-27T08:19:53.891Z,56.28
2019-02-27T08:24:57.413Z,56.30
2019-02-27T08:30:01.009Z,55.05
2019-02-27T08:35:05.322Z,52.15
2019-02-27T08:40:11.212Z,55.43
2019-02-27T08:45:20.503Z,58.00
2019-02-27T08:50:24.883Z,53.42
2019-02-27T08:55:28.438Z,69.07
2019-02-27T09:00:33.572Z,70.27
2019-02-27T09:05:37.121Z,59.95
2019-02-27T09:10:40.732Z,58.02
2019-02-27T09:15:44.246Z,61.25
2019-02-27T09:20:47.850Z,62.88
2019-02-27T09:25:57.254Z,64.87
2019-02-27T09:30:56.946Z,64.10
2019-02-27T09:36:00.470Z,61.02
2019-02-27T09:41:04.862Z,64.22
2019-02-27T09:46:08.421Z,52.53
2019-02-27T09:51:11.983Z,54.33
2019-02-27T09:56:15.539Z,87.57
2019-02-27T10:01:19.140Z,52.25
2019-02-27T10:06:22.663Z,49.75
2019-02-27T10:11:26.251Z,45.40
2019-02-27T10:16:29.782Z,44.30
2019-02-27T10:21:33.357Z,47.43
2019-02-27T10:26:36.878Z,39.45
2019-02-27T10:31:40.494Z,37.78
2019-02-27T10:36:44.049Z,33.37
2019-02-27T10:41:50.549Z,34.10
2019-02-27T10:46:57.240Z,36.40
2019-02-27T10:51:59.738Z,80.72
2019-02-27T10:57:03.282Z,29.02
2019-02-27T11:02:09.731Z,27.15
2019-02-27T11:07:13.218Z,27.27
2019-02-27T11:12:17.764Z,22.47
2019-02-27T11:17:21.321Z,23.60
2019-02-27T11:22:24.951Z,18.25
2019-02-27T11:27:28.470Z,16.45
2019-02-27T11:32:32.056Z,13.78
2019-02-27T11:37:35.614Z,11.20
2019-02-27T11:42:39.202Z,10.08
2019-02-27T11:47:47.736Z,9.80
2019-02-27T11:52:49.224Z,9.08
2019-02-27T11:57:52.991Z,9.73
2019-02-27T12:02:56.708Z,9.23
2019-02-27T12:08:00.233Z,8.10
2019-02-27T12:13:03.947Z,7.40
2019-02-27T12:18:07.476Z,7.10
2019-02-27T12:23:11.104Z,10.13
2019-02-27T12:28:18.263Z,6.12
2019-02-27T12:33:20.565Z,6.65
2019-02-27T12:38:24.078Z,6.10
2019-02-27T12:43:27.675Z,4.00
2019-02-27T12:48:31.187Z,3.40
2019-02-27T12:53:34.780Z,4.80
2019-02-27T12:58:38.324Z,3.00
2019-02-27T13:03:42.999Z,2.60
2019-02-27T13:08:46.641Z,3.00
2019-02-27T13:13:50.242Z,4.00
2019-02-27T13:18:53.749Z,2.77
2019-02-27T13:23:57.329Z,2.83
2019-02-27T13:29:01.008Z,2.98
2019-02-27T13:34:04.888Z,2.50
2019-02-27T13:39:08.600Z,2.75
2019-02-27T13:44:12.158Z,2.62
2019-02-27T13:49:15.698Z,3.20
2019-02-27T13:54:19.271Z,3.27
2019-02-27T13:59:22.793Z,3.15
2019-02-27T14:04:26.803Z,3.60
2019-02-27T14:09:30.347Z,3.95
2019-02-27T14:14:33.940Z,4.92
2019-02-27T14:19:37.567Z,5.67
2019-02-27T14:24:41.202Z,4.22
2019-02-27T14:29:44.997Z,4.90
2019-02-27T14:34:48.588Z,4.62
2019-02-27T14:39:52.125Z,4.90
2019-02-27T14:44:55.709Z,5.25
2019-02-27T14:50:00.147Z,6.17
2019-02-27T14:55:04.449Z,4.50
2019-02-27T15:00:24.376Z,4.50
2019-02-27T15:05:27.645Z,5.15
2019-02-27T15:10:31.218Z,7.22
2019-02-27T15:15:34.763Z,5.55
2019-02-27T15:20:40.983Z,5.35
2019-02-27T15:25:43.612Z,9.68
2019-02-27T15:30:47.488Z,5.87
2019-02-27T15:35:55.032Z,6.10
2019-02-27T15:40:56.320Z,7.25
2019-02-27T15:45:59.842Z,8.55
2019-02-27T15:51:03.420Z,12.50
2019-02-27T15:56:08.577Z,12.63
2019-02-27T16:01:12.820Z,15.50
2019-02-27T16:06:16.335Z,21.13
2019-02-27T16:11:19.950Z,22.60
2019-02-27T16:16:23.523Z,26.57
2019-02-27T16:21:28.713Z,31.30
2019-02-27T16:26:32.258Z,43.80
2019-02-27T16:31:37.118Z,41.50
2019-02-27T16:36:41.193Z,56.00
2019-02-27T16:41:45.132Z,36.85
2019-02-27T16:46:48.816Z,38.65
2019-02-27T16:51:52.395Z,36.15
2019-02-27T16:56:57.902Z,36.23
2019-02-27T17:02:03.940Z,42.88
2019-02-27T17:07:06.513Z,44.88
2019-02-27T17:12:10.306Z,37.13
2019-02-27T17:17:16.125Z,36.83
2019-02-27T17:22:19.170Z,37.80
2019-02-27T17:27:22.722Z,38.83
2019-02-27T17:32:27.486Z,45.05
2019-02-27T17:37:31.619Z,40.78
2019-02-27T17:42:35.222Z,33.50
2019-02-27T17:47:38.870Z,36.93
2019-02-27T17:52:42.452Z,38.00
2019-02-27T17:57:46.381Z,38.50
2019-02-27T18:02:50.270Z,42.90
2019-02-27T18:07:53.791Z,38.65
2019-02-27T18:13:01.240Z,40.48
2019-02-27T18:18:07.091Z,40.83
2019-02-27T18:23:11.706Z,44.35
2019-02-27T18:28:15.411Z,44.42
2019-02-27T18:33:19.042Z,43.58
2019-02-27T18:38:27.507Z,47.13
2019-02-27T18:43:30.146Z,48.30
2019-02-27T18:48:33.334Z,55.48
2019-02-27T18:53:37.020Z,58.55
2019-02-27T18:58:40.567Z,71.77
2019-02-27T19:03:44.244Z,50.12
2019-02-27T19:08:47.836Z,53.65
2019-02-27T19:13:53.105Z,52.62
2019-02-27T19:18:56.835Z,52.62
2019-02-27T19:24:00.424Z,54.85
2019-02-27T19:29:05.009Z,54.55
2019-02-27T19:34:10.329Z,61.40
2019-02-27T19:39:14.152Z,72.55
2019-02-27T19:44:17.769Z,70.20
2019-02-27T19:49:21.439Z,57.58
2019-02-27T19:54:25.047Z,53.50
2019-02-27T19:59:29.575Z,49.60
2019-02-27T20:04:33.195Z,49.93
2019-02-27T20:09:36.973Z,46.05
2019-02-27T20:14:40.628Z,44.95
2019-02-27T20:19:44.349Z,47.43
2019-02-27T20:24:47.998Z,49.95
2019-02-27T20:29:51.699Z,45.10
2019-02-27T20:34:55.299Z,44.35
2019-02-27T20:39:59.500Z,47.08
2019-02-27T20:45:03.433Z,44.88
2019-02-27T20:50:12.779Z,42.65
2019-02-27T20:55:16.425Z,46.83
2019-02-27T21:00:24.100Z,43.55
2019-02-27T21:05:27.958Z,39.05
2019-02-27T21:10:33.124Z,40.58
2019-02-27T21:15:36.655Z,38.80
2019-02-27T21:20:42.199Z,42.15
2019-02-27T21:25:50.245Z,42.45
2019-02-27T21:30:53.911Z,41.95
2019-02-27T21:36:02.485Z,41.58
2019-02-27T21:41:03.224Z,41.13
2019-02-27T21:46:08.371Z,45.55
2019-02-27T21:51:13.696Z,43.65
2019-02-27T21:56:18.042Z,45.00
2019-02-27T22:01:22.639Z,43.23
2019-02-27T22:06:27.442Z,44.55
2019-02-27T22:11:31.672Z,41.85
2019-02-27T22:16:35.334Z,41.70
2019-02-27T22:21:38.910Z,40.63
2019-02-27T22:26:42.430Z,36.68
2019-02-27T22:31:46.395Z,35.03
2019-02-27T22:36:49.936Z,34.83
2019-02-27T22:41:54.116Z,37.73
2019-02-27T22:46:57.639Z,33.33
2019-02-27T22:52:01.234Z,32.85
2019-02-27T22:57:05.354Z,32.05
2019-02-27T23:02:08.941Z,34.38
2019-02-27T23:07:12.537Z,34.08
2019-02-27T23:12:16.112Z,31.68
2019-02-27T23:17:19.665Z,34.00
2019-02-27T23:22:23.598Z,30.45
2019-02-27T23:27:27.161Z,30.95
2019-02-27T23:32:30.697Z,30.37
2019-02-27T23:37:34.546Z,30.62
2019-02-27T23:42:38.107Z,30.48
2019-02-27T23:47:41.622Z,34.40
2019-02-27T23:52:45.181Z,34.50
2019-02-27T23:57:48.708Z,34.78
